createdAt,value
2018-03-24T00:01:38.555Z,25.80
2018-03-24T00:04:13.225Z,27.03
2018-03-24T00:06:48.591Z,28.43
2018-03-24T00:09:23.191Z,26.57
2018-03-24T00:11:57.966Z,25.80
2018-03-24T00:14:32.859Z,26.03
2018-03-24T00:17:07.948Z,26.03
2018-03-24T00:19:43.011Z,27.53
2018-03-24T00:22:19.977Z,27.37
2018-03-24T00:24:54.481Z,26.53
2018-03-24T00:27:29.637Z,26.40
2018-03-24T00:30:04.961Z,26.07
2018-03-24T00:32:40.292Z,25.47
2018-03-24T00:35:15.279Z,25.93
2018-03-24T00:37:50.488Z,25.00
2018-03-24T00:40:25.027Z,23.97
2018-03-24T00:43:01.157Z,24.37
2018-03-24T00:45:32.304Z,23.00
2018-03-24T00:48:07.427Z,24.60
2018-03-24T00:50:42.476Z,23.83
2018-03-24T00:53:17.869Z,23.87
2018-03-24T00:55:52.930Z,24.17
2018-03-24T00:58:28.254Z,22.33
2018-03-24T01:00:59.229Z,21.97
2018-03-24T01:03:34.181Z,21.73
2018-03-24T01:06:09.839Z,20.27
2018-03-24T01:08:46.333Z,22.03
2018-03-24T01:11:21.677Z,22.50
2018-03-24T01:13:56.823Z,23.60
2018-03-24T01:16:32.411Z,25.00
2018-03-24T01:19:07.674Z,23.00
2018-03-24T01:21:42.441Z,22.00
2018-03-24T01:24:17.758Z,22.57
2018-03-24T01:26:53.097Z,22.40
2018-03-24T01:29:28.165Z,23.13
2018-03-24T01:32:02.925Z,24.00
2018-03-24T01:34:37.863Z,23.17
2018-03-24T01:37:12.687Z,22.30
2018-03-24T01:39:48.245Z,21.87
2018-03-24T01:42:24.441Z,22.10
2018-03-24T01:44:59.728Z,21.30
2018-03-24T01:47:34.712Z,23.20
2018-03-24T01:50:10.005Z,23.60
2018-03-24T01:52:44.980Z,24.00
2018-03-24T01:55:20.255Z,22.90
2018-03-24T01:57:55.184Z,23.90
2018-03-24T02:00:26.187Z,22.53
2018-03-24T02:03:00.867Z,24.63
2018-03-24T02:05:35.901Z,25.80
2018-03-24T02:08:10.994Z,24.07
2018-03-24T02:10:46.257Z,24.53
2018-03-24T02:13:20.836Z,24.77
2018-03-24T02:15:51.881Z,23.70
2018-03-24T02:18:26.807Z,24.50
2018-03-24T02:21:03.310Z,24.63
2018-03-24T02:23:38.160Z,24.50
2018-03-24T02:26:13.482Z,24.60
2018-03-24T02:28:49.260Z,26.47
2018-03-24T02:31:20.454Z,25.20
2018-03-24T02:33:54.952Z,25.83
2018-03-24T02:36:30.973Z,24.57
2018-03-24T02:39:05.967Z,26.37
2018-03-24T02:41:41.094Z,24.63
2018-03-24T02:44:16.101Z,23.47
2018-03-24T02:46:51.223Z,25.83
2018-03-24T02:49:26.195Z,25.03
2018-03-24T02:52:01.453Z,25.83
2018-03-24T02:54:36.202Z,25.37
2018-03-24T02:57:11.190Z,25.40
2018-03-24T02:59:46.400Z,25.23
2018-03-24T03:02:22.530Z,25.57
2018-03-24T03:04:57.194Z,24.43
2018-03-24T03:07:33.301Z,24.37
2018-03-24T03:10:08.364Z,24.73
2018-03-24T03:12:43.759Z,23.93
2018-03-24T03:15:14.859Z,24.07
2018-03-24T03:17:50.667Z,25.93
2018-03-24T03:20:25.623Z,23.43
2018-03-24T03:23:00.911Z,23.07
2018-03-24T03:25:36.915Z,24.70
2018-03-24T03:28:12.251Z,23.53
2018-03-24T03:30:58.592Z,24.40
2018-03-24T03:33:33.847Z,22.80
2018-03-24T03:36:09.605Z,24.40
2018-03-24T03:38:45.801Z,23.37
2018-03-24T03:41:20.727Z,22.97
2018-03-24T03:43:55.483Z,24.87
2018-03-24T03:46:29.965Z,24.67
2018-03-24T03:49:05.049Z,24.17
2018-03-24T03:51:35.921Z,24.13
2018-03-24T03:54:12.075Z,24.20
2018-03-24T03:56:48.118Z,23.90
2018-03-24T03:59:23.415Z,24.83
2018-03-24T04:01:59.557Z,27.60
2018-03-24T04:04:34.657Z,23.80
2018-03-24T04:07:09.263Z,24.53
2018-03-24T04:09:45.331Z,28.03
2018-03-24T04:12:20.315Z,25.33
2018-03-24T04:14:55.627Z,26.37
2018-03-24T04:17:30.655Z,26.67
2018-03-24T04:20:07.092Z,27.30
2018-03-24T04:22:42.125Z,26.37
2018-03-24T04:25:17.495Z,25.33
2018-03-24T04:27:52.997Z,27.27
2018-03-24T04:30:24.517Z,27.07
2018-03-24T04:32:59.385Z,26.03
2018-03-24T04:35:34.457Z,23.40
2018-03-24T04:38:10.218Z,22.10
2018-03-24T04:40:46.513Z,23.97
2018-03-24T04:43:21.618Z,22.37
2018-03-24T04:45:53.595Z,21.80
2018-03-24T04:48:28.519Z,21.93
2018-03-24T04:51:03.507Z,20.30
2018-03-24T04:53:38.230Z,19.80
2018-03-24T04:56:13.614Z,22.10
2018-03-24T04:58:49.115Z,21.53
2018-03-24T05:01:20.117Z,22.90
2018-03-24T05:03:51.214Z,22.60
2018-03-24T05:06:26.179Z,23.47
2018-03-24T05:09:00.764Z,22.80
2018-03-24T05:11:36.478Z,22.07
2018-03-24T05:14:11.383Z,20.30
2018-03-24T05:16:47.232Z,23.27
2018-03-24T05:19:22.191Z,21.23
2018-03-24T05:21:57.269Z,22.27
2018-03-24T05:24:32.041Z,23.37
2018-03-24T05:27:07.305Z,23.10
2018-03-24T05:29:42.437Z,23.60
2018-03-24T05:32:17.514Z,23.77
2018-03-24T05:34:52.561Z,23.70
2018-03-24T05:37:28.478Z,24.50
2018-03-24T05:40:03.157Z,25.73
2018-03-24T05:42:38.263Z,21.73
2018-03-24T05:45:10.927Z,20.70
2018-03-24T05:47:45.928Z,20.53
2018-03-24T05:50:20.929Z,21.63
2018-03-24T05:52:56.960Z,22.50
2018-03-24T05:55:31.789Z,23.30
2018-03-24T05:58:07.747Z,27.40
2018-03-24T06:00:38.860Z,30.03
2018-03-24T06:03:14.486Z,34.30
2018-03-24T06:05:49.325Z,40.43
2018-03-24T06:08:24.208Z,48.07
2018-03-24T06:10:59.171Z,48.57
2018-03-24T06:13:35.945Z,45.27
2018-03-24T06:16:06.863Z,46.73
2018-03-24T06:18:42.440Z,43.63
2018-03-24T06:21:17.381Z,44.43
2018-03-24T06:23:53.000Z,45.07
2018-03-24T06:26:27.813Z,40.43
2018-03-24T06:29:04.052Z,40.80
2018-03-24T06:31:41.163Z,39.93
2018-03-24T06:34:17.607Z,34.47
2018-03-24T06:36:56.408Z,35.97
2018-03-24T06:39:31.509Z,31.40
2018-03-24T06:42:06.723Z,28.00
2018-03-24T06:44:42.799Z,28.90
2018-03-24T06:47:17.703Z,28.53
2018-03-24T06:49:53.935Z,25.57
2018-03-24T06:52:28.939Z,26.10
2018-03-24T06:55:03.994Z,26.50
2018-03-24T06:57:38.840Z,28.17
2018-03-24T07:00:11.494Z,27.07
2018-03-24T07:02:51.110Z,24.57
2018-03-24T07:05:27.493Z,25.40
2018-03-24T07:08:02.435Z,25.70
2018-03-24T07:10:38.154Z,23.77
2018-03-24T07:13:13.073Z,25.90
2018-03-24T07:15:44.874Z,25.80
2018-03-24T07:18:19.799Z,23.03
2018-03-24T07:20:55.523Z,24.93
2018-03-24T07:23:31.126Z,22.50
2018-03-24T07:26:06.769Z,24.07
2018-03-24T07:28:41.507Z,25.30
2018-03-24T07:31:12.661Z,21.20
2018-03-24T07:33:47.913Z,21.60
2018-03-24T07:36:23.758Z,21.03
2018-03-24T07:38:58.840Z,22.60
2018-03-24T07:41:34.078Z,22.33
2018-03-24T07:44:08.944Z,22.27
2018-03-24T07:46:45.980Z,22.47
2018-03-24T07:49:21.300Z,22.33
2018-03-24T07:51:57.751Z,21.77
2018-03-24T07:54:32.552Z,22.37
2018-03-24T07:57:08.149Z,21.63
2018-03-24T07:59:47.929Z,21.60
2018-03-24T08:02:23.220Z,21.47
2018-03-24T08:04:59.874Z,20.83
2018-03-24T08:07:35.407Z,21.40
2018-03-24T08:10:10.711Z,21.97
2018-03-24T08:12:46.074Z,21.10
2018-03-24T08:15:17.345Z,20.20
2018-03-24T08:17:53.416Z,21.57
2018-03-24T08:20:28.644Z,20.23
2018-03-24T08:23:04.456Z,19.37
2018-03-24T08:25:39.517Z,20.07
2018-03-24T08:28:14.673Z,20.37
2018-03-24T08:30:45.748Z,20.10
2018-03-24T08:33:20.885Z,18.90
2018-03-24T08:35:55.411Z,21.13
2018-03-24T08:38:30.672Z,19.23
2018-03-24T08:41:05.434Z,21.40
2018-03-24T08:43:40.569Z,20.67
2018-03-24T08:46:11.560Z,19.80
2018-03-24T08:48:46.711Z,19.13
2018-03-24T08:51:21.714Z,20.47
2018-03-24T08:53:57.777Z,17.97
2018-03-24T08:56:32.667Z,18.70
2018-03-24T08:59:07.850Z,19.20
2018-03-24T09:01:43.003Z,18.10
2018-03-24T09:04:18.273Z,18.73
2018-03-24T09:06:53.613Z,17.13
2018-03-24T09:09:28.594Z,17.53
2018-03-24T09:12:04.166Z,15.67
2018-03-24T09:14:39.447Z,15.33
2018-03-24T09:17:14.407Z,14.70
2018-03-24T09:19:51.033Z,14.33
2018-03-24T09:22:27.155Z,15.40
2018-03-24T09:25:03.123Z,14.70
2018-03-24T09:27:37.819Z,15.40
2018-03-24T09:30:10.442Z,14.10
2018-03-24T09:32:46.545Z,13.00
2018-03-24T09:35:22.011Z,13.23
2018-03-24T09:37:58.276Z,12.63
2018-03-24T09:40:34.053Z,13.43
2018-03-24T09:43:06.082Z,12.40
2018-03-24T09:45:37.179Z,11.90
2018-03-24T09:48:12.339Z,10.80
2018-03-24T09:50:47.341Z,11.40
2018-03-24T09:53:23.393Z,12.60
2018-03-24T09:55:58.607Z,15.67
2018-03-24T09:58:34.241Z,9.53
2018-03-24T10:01:05.148Z,10.90
2018-03-24T10:03:41.949Z,10.60
2018-03-24T10:06:17.427Z,13.07
2018-03-24T10:08:52.660Z,10.67
2018-03-24T10:11:28.128Z,10.07
2018-03-24T10:14:04.095Z,11.10
2018-03-24T10:16:39.538Z,11.30
2018-03-24T10:19:14.451Z,11.43
2018-03-24T10:22:08.539Z,11.17
2018-03-24T10:24:43.805Z,11.80
2018-03-24T10:27:19.205Z,11.53
2018-03-24T10:29:54.281Z,11.03
2018-03-24T10:32:29.741Z,11.53
2018-03-24T10:35:08.545Z,10.33
2018-03-24T10:37:48.348Z,10.80
2018-03-24T10:40:24.105Z,14.13
2018-03-24T10:43:13.791Z,13.23
2018-03-24T10:45:44.929Z,12.93
2018-03-24T10:48:20.261Z,11.90
2018-03-24T10:50:55.459Z,12.77
2018-03-24T10:53:31.154Z,12.13
2018-03-24T10:56:06.945Z,12.13
2018-03-24T10:58:43.368Z,13.20
2018-03-24T11:01:14.566Z,13.07
2018-03-24T11:03:51.400Z,13.67
2018-03-24T11:06:26.377Z,22.43
2018-03-24T11:09:02.422Z,15.23
2018-03-24T11:11:38.309Z,13.57
2018-03-24T11:14:14.719Z,16.40
2018-03-24T11:16:49.848Z,17.00
2018-03-24T11:19:24.993Z,15.53
2018-03-24T11:22:00.265Z,16.73
2018-03-24T11:24:35.723Z,16.97
2018-03-24T11:27:10.533Z,14.67
2018-03-24T11:29:46.719Z,15.57
2018-03-24T11:32:21.572Z,15.70
2018-03-24T11:34:57.965Z,14.30
2018-03-24T11:37:32.618Z,13.97
2018-03-24T11:40:07.835Z,13.97
2018-03-24T11:42:42.451Z,14.40
2018-03-24T11:45:13.712Z,14.37
2018-03-24T11:47:51.707Z,13.00
2018-03-24T11:50:26.836Z,13.83
2018-03-24T11:53:03.380Z,13.20
2018-03-24T11:55:38.789Z,11.37
2018-03-24T11:58:13.471Z,12.87
2018-03-24T12:00:44.655Z,12.27
2018-03-24T12:03:20.365Z,12.50
2018-03-24T12:05:57.665Z,13.43
2018-03-24T12:08:32.680Z,14.30
2018-03-24T12:11:09.713Z,14.37
2018-03-24T12:13:44.699Z,12.97
2018-03-24T12:16:15.801Z,13.57
2018-03-24T12:18:52.446Z,14.03
2018-03-24T12:21:29.381Z,13.97
2018-03-24T12:24:05.885Z,14.13
2018-03-24T12:26:40.996Z,13.33
2018-03-24T12:29:15.982Z,12.43
2018-03-24T12:31:51.293Z,12.23
2018-03-24T12:34:26.626Z,12.53
2018-03-24T12:37:02.643Z,13.97
2018-03-24T12:39:37.378Z,15.73
2018-03-24T12:42:12.338Z,16.13
2018-03-24T12:44:47.048Z,15.60
2018-03-24T12:47:23.334Z,14.60
2018-03-24T12:49:58.201Z,14.00
2018-03-24T12:52:34.056Z,14.83
2018-03-24T12:55:08.746Z,14.70
2018-03-24T12:57:47.816Z,15.00
2018-03-24T13:00:18.887Z,16.40
2018-03-24T13:02:55.362Z,17.87
2018-03-24T13:05:30.127Z,18.77
2018-03-24T13:08:05.735Z,19.40
2018-03-24T13:10:41.276Z,17.60
2018-03-24T13:13:17.212Z,16.53
2018-03-24T13:15:49.123Z,18.57
2018-03-24T13:18:23.816Z,20.23
2018-03-24T13:20:59.367Z,20.27
2018-03-24T13:23:36.428Z,20.53
2018-03-24T13:26:11.526Z,19.33
2018-03-24T13:28:47.049Z,18.83
2018-03-24T13:31:18.189Z,19.67
2018-03-24T13:33:54.640Z,20.63
2018-03-24T13:36:30.526Z,19.87
2018-03-24T13:39:07.439Z,19.60
2018-03-24T13:41:42.702Z,21.93
2018-03-24T13:44:18.394Z,18.37
2018-03-24T13:46:53.796Z,21.33
2018-03-24T13:49:28.810Z,19.77
2018-03-24T13:52:04.800Z,17.40
2018-03-24T13:54:39.761Z,19.07
2018-03-24T13:57:14.376Z,19.57
2018-03-24T13:59:49.973Z,18.43
2018-03-24T14:02:24.953Z,19.13
2018-03-24T14:05:02.190Z,19.50
2018-03-24T14:07:37.311Z,18.40
2018-03-24T14:10:12.276Z,19.63
2018-03-24T14:12:47.379Z,19.47
2018-03-24T14:15:18.498Z,20.10
2018-03-24T14:17:54.470Z,20.50
2018-03-24T14:20:31.252Z,20.30
2018-03-24T14:23:07.425Z,19.47
2018-03-24T14:25:42.360Z,20.53
2018-03-24T14:28:17.107Z,25.83
2018-03-24T14:30:53.338Z,23.67
2018-03-24T14:33:29.837Z,24.57
2018-03-24T14:36:05.297Z,23.77
2018-03-24T14:38:42.085Z,23.13
2018-03-24T14:41:17.736Z,22.97
2018-03-24T14:43:55.017Z,22.70
2018-03-24T14:46:30.372Z,23.37
2018-03-24T14:49:05.460Z,25.03
2018-03-24T14:51:45.191Z,23.37
2018-03-24T14:54:20.945Z,22.60
2018-03-24T14:56:57.768Z,24.33
2018-03-24T14:59:33.930Z,21.87
2018-03-24T15:02:08.870Z,19.90
2018-03-24T15:04:43.626Z,20.43
2018-03-24T15:07:18.370Z,21.00
2018-03-24T15:09:53.205Z,20.47
2018-03-24T15:12:28.298Z,21.50
2018-03-24T15:15:05.328Z,20.70
2018-03-24T15:17:41.010Z,20.53
2018-03-24T15:20:16.071Z,20.47
2018-03-24T15:22:51.341Z,19.47
2018-03-24T15:25:26.816Z,20.00
2018-03-24T15:28:02.741Z,21.13
2018-03-24T15:30:46.804Z,21.97
2018-03-24T15:33:29.141Z,20.63
2018-03-24T15:36:12.695Z,20.17
2018-03-24T15:38:47.460Z,21.87
2018-03-24T15:41:23.239Z,22.57
2018-03-24T15:43:59.085Z,23.03
2018-03-24T15:46:34.794Z,20.67
2018-03-24T15:49:10.155Z,19.63
2018-03-24T15:51:46.053Z,19.17
2018-03-24T15:54:21.764Z,20.53
2018-03-24T15:56:57.161Z,19.17
2018-03-24T15:59:32.025Z,19.60
2018-03-24T16:02:06.665Z,18.87
2018-03-24T16:04:41.820Z,18.63
2018-03-24T16:07:18.094Z,20.43
2018-03-24T16:09:53.751Z,19.83
2018-03-24T16:12:29.300Z,19.63
2018-03-24T16:15:06.315Z,19.90
2018-03-24T16:17:41.515Z,18.63
2018-03-24T16:20:19.374Z,17.73
2018-03-24T16:22:55.959Z,18.67
2018-03-24T16:25:31.595Z,19.70
2018-03-24T16:30:42.660Z,20.10
2018-03-24T16:33:17.332Z,22.37
2018-03-24T16:35:54.933Z,24.30
2018-03-24T16:38:30.170Z,20.40
2018-03-24T16:41:05.289Z,19.50
2018-03-24T16:43:40.873Z,18.10
2018-03-24T16:46:11.952Z,18.43
2018-03-24T16:48:47.529Z,20.17
2018-03-24T16:51:24.497Z,19.97
2018-03-24T16:53:59.444Z,18.03
2018-03-24T16:56:35.365Z,16.47
2018-03-24T16:59:10.407Z,15.57
2018-03-24T17:01:45.121Z,16.57
2018-03-24T17:04:23.307Z,16.20
2018-03-24T17:06:59.181Z,15.93
2018-03-24T17:09:35.837Z,15.70
2018-03-24T17:12:11.166Z,16.30
2018-03-24T17:14:46.170Z,15.93
2018-03-24T17:17:22.389Z,16.07
2018-03-24T17:19:57.458Z,16.37
2018-03-24T17:22:33.227Z,16.27
2018-03-24T17:25:10.228Z,15.37
2018-03-24T17:27:46.625Z,15.67
2018-03-24T17:30:17.963Z,16.43
2018-03-24T17:32:53.211Z,15.70
2018-03-24T17:35:28.275Z,14.77
2018-03-24T17:38:05.911Z,16.93
2018-03-24T17:40:40.690Z,15.93
2018-03-24T17:43:16.693Z,21.27
2018-03-24T17:45:47.457Z,21.30
2018-03-24T17:48:24.229Z,18.20
2018-03-24T17:50:59.409Z,17.47
2018-03-24T17:53:34.771Z,14.77
2018-03-24T17:56:12.396Z,15.13
2018-03-24T17:58:47.763Z,15.13
2018-03-24T18:01:18.772Z,14.20
2018-03-24T18:03:54.136Z,15.97
2018-03-24T18:06:29.904Z,16.07
2018-03-24T18:09:05.357Z,15.10
2018-03-24T18:11:40.582Z,15.47
2018-03-24T18:14:15.882Z,15.03
2018-03-24T18:17:01.911Z,15.93
2018-03-24T18:19:47.769Z,15.17
2018-03-24T18:22:23.635Z,15.60
2018-03-24T18:24:58.897Z,15.83
2018-03-24T18:27:35.472Z,15.70
2018-03-24T18:30:09.711Z,16.30
2018-03-24T18:32:46.817Z,17.33
2018-03-24T18:35:21.911Z,17.43
2018-03-24T18:37:58.113Z,15.80
2018-03-24T18:40:33.603Z,16.70
2018-03-24T18:43:08.687Z,18.50
2018-03-24T18:45:39.908Z,18.70
2018-03-24T18:48:16.251Z,17.17
2018-03-24T18:50:53.402Z,17.77
2018-03-24T18:53:28.232Z,17.60
2018-03-24T18:56:03.789Z,17.80
2018-03-24T18:58:38.854Z,18.17
2018-03-24T19:01:10.131Z,17.67
2018-03-24T19:03:45.273Z,18.07
2018-03-24T19:06:20.316Z,17.17
2018-03-24T19:08:55.319Z,18.40
2018-03-24T19:11:33.205Z,18.57
2018-03-24T19:14:08.260Z,18.27
2018-03-24T19:16:46.743Z,20.90
2018-03-24T19:19:21.746Z,20.07
2018-03-24T19:21:57.158Z,21.13
2018-03-24T19:24:32.059Z,19.87
2018-03-24T19:27:08.699Z,20.87
2018-03-24T19:29:45.099Z,20.03
2018-03-24T19:32:20.354Z,20.57
2018-03-24T19:34:56.231Z,20.10
2018-03-24T19:37:31.669Z,20.90
2018-03-24T19:40:06.910Z,21.90
2018-03-24T19:42:42.384Z,21.40
2018-03-24T19:45:12.755Z,21.40
2018-03-24T19:47:48.327Z,21.67
2018-03-24T19:50:23.169Z,21.93
2018-03-24T19:52:58.433Z,22.17
2018-03-24T19:55:33.104Z,22.93
2018-03-24T19:58:10.108Z,23.13
2018-03-24T20:00:41.052Z,21.93
2018-03-24T20:03:16.507Z,22.13
2018-03-24T20:05:51.408Z,23.50
2018-03-24T20:08:27.778Z,22.07
2018-03-24T20:11:03.326Z,23.17
2018-03-24T20:13:38.459Z,22.90
2018-03-24T20:16:09.200Z,23.00
2018-03-24T20:18:44.865Z,22.53
2018-03-24T20:21:19.891Z,22.73
2018-03-24T20:23:54.764Z,22.60
2018-03-24T20:26:29.495Z,21.10
2018-03-24T20:29:08.806Z,21.93
2018-03-24T20:31:43.969Z,21.17
2018-03-24T20:34:20.138Z,23.03
2018-03-24T20:36:55.290Z,22.83
2018-03-24T20:39:31.586Z,22.77
2018-03-24T20:42:06.756Z,22.60
2018-03-24T20:44:42.841Z,21.53
2018-03-24T20:47:18.929Z,19.77
2018-03-24T20:49:54.335Z,20.83
2018-03-24T20:52:30.317Z,21.43
2018-03-24T20:55:06.443Z,21.17
2018-03-24T20:57:41.775Z,21.70
2018-03-24T21:00:12.496Z,21.50
2018-03-24T21:02:48.175Z,22.00
2018-03-24T21:05:23.638Z,21.10
2018-03-24T21:07:59.545Z,22.10
2018-03-24T21:10:35.220Z,21.37
2018-03-24T21:13:10.278Z,22.07
2018-03-24T21:15:41.587Z,22.97
2018-03-24T21:18:16.325Z,20.70
2018-03-24T21:20:51.544Z,19.40
2018-03-24T21:23:27.938Z,19.17
2018-03-24T21:26:03.627Z,18.90
2018-03-24T21:28:38.601Z,20.27
2018-03-24T21:31:10.025Z,20.37
2018-03-24T21:33:45.707Z,22.43
2018-03-24T21:36:21.160Z,22.93
2018-03-24T21:38:56.137Z,21.43
2018-03-24T21:41:32.780Z,19.80
2018-03-24T21:44:09.389Z,18.73
2018-03-24T21:46:45.668Z,17.53
2018-03-24T21:49:20.396Z,18.80
2018-03-24T21:51:55.650Z,19.47
2018-03-24T21:54:30.181Z,19.90
2018-03-24T21:57:05.517Z,23.63
2018-03-24T21:59:40.843Z,22.47
2018-03-24T22:02:16.011Z,21.70
2018-03-24T22:04:51.249Z,24.27
2018-03-24T22:07:26.167Z,22.30
2018-03-24T22:10:01.131Z,21.73
2018-03-24T22:12:36.987Z,23.47
2018-03-24T22:15:10.307Z,20.80
2018-03-24T22:17:46.277Z,21.83
2018-03-24T22:20:21.203Z,22.27
2018-03-24T22:22:56.313Z,21.03
2018-03-24T22:25:31.295Z,20.57
2018-03-24T22:28:06.424Z,19.60
2018-03-24T22:30:37.527Z,19.77
2018-03-24T22:33:12.951Z,18.97
2018-03-24T22:35:48.740Z,20.83
2018-03-24T22:38:24.057Z,20.60
2018-03-24T22:40:59.638Z,21.43
2018-03-24T22:43:34.486Z,21.33
2018-03-24T22:46:05.749Z,21.77
2018-03-24T22:48:42.087Z,25.53
2018-03-24T22:51:17.018Z,37.03
2018-03-24T22:53:52.351Z,25.30
2018-03-24T22:56:27.567Z,22.37
2018-03-24T22:59:02.667Z,26.87
2018-03-24T23:01:37.599Z,21.80
2018-03-24T23:04:12.440Z,19.93
2018-03-24T23:06:48.405Z,19.33
2018-03-24T23:09:24.791Z,18.93
2018-03-24T23:11:59.571Z,20.37
2018-03-24T23:14:34.338Z,21.80
2018-03-24T23:17:09.669Z,21.43
2018-03-24T23:19:46.566Z,21.17
2018-03-24T23:22:21.884Z,22.33
2018-03-24T23:24:58.126Z,23.83
2018-03-24T23:27:33.271Z,21.63
2018-03-24T23:30:08.194Z,19.83
2018-03-24T23:32:43.121Z,20.60
2018-03-24T23:35:18.256Z,21.13
2018-03-24T23:37:53.320Z,22.37
2018-03-24T23:40:29.371Z,20.57
2018-03-24T23:43:05.113Z,20.47
2018-03-24T23:45:36.074Z,22.03
2018-03-24T23:48:11.715Z,21.20
2018-03-24T23:50:48.216Z,20.20
2018-03-24T23:53:23.092Z,21.57
2018-03-24T23:55:58.189Z,20.27
2018-03-24T23:58:33.122Z,21.23
